This is the latest recevied weather packets stored in our database for station/object WE1C. If no packets are shown the sender has not sent any weather packets the latest 10 day(s).
| Time | Temp. | Humidity | Pressure | Rain* | Wind** | Luminosity | Snow |
|---|---|---|---|---|---|---|---|
| 1778011214 | 27.22° C | 33% | 1035.6 hPa | 0 mm | - | 563 W/m² | - |
| 1778010909 | 26.67° C | 34% | 1035.7 hPa | 0 mm | - | 491 W/m² | - |
| 1778010607 | 27.22° C | 33% | 1035.6 hPa | 0 mm | - | 169 W/m² | - |
| 1778010299 | 26.67° C | 36% | 1035.7 hPa | 0 mm | - | 623 W/m² | - |
| 1778009999 | 26.67° C | 35% | 1035.6 hPa | 0 mm | - | 174 W/m² | - |
| 1778009696 | 27.22° C | 35% | 1035.9 hPa | 0 mm | - | 115 W/m² | - |
| 1778009393 | 27.78° C | 34% | 1035.7 hPa | 0 mm | - | 683 W/m² | - |
| 1778009092 | 27.22° C | 34% | 1035.6 hPa | 0 mm | - | 679 W/m² | - |
| 1778008789 | 27.78° C | 33% | 1035.7 hPa | 0 mm | - | 695 W/m² | - |
| 1778008488 | 27.78° C | 33% | 1035.6 hPa | 0 mm | - | 691 W/m² | - |
| 1778008184 | 27.78° C | 32% | 1035.8 hPa | 0 mm | - | 710 W/m² | - |
| 1778007879 | 27.22° C | 33% | 1036 hPa | 0 mm | - | 710 W/m² | - |
| 1778007575 | 28.89° C | 32% | 1036.1 hPa | 0 mm | - | 709 W/m² | - |
| 1778007273 | 27.78° C | 34% | 1035.8 hPa | 0 mm | - | 724 W/m² | - |
| 1778006968 | 27.22° C | 34% | 1036.2 hPa | 0 mm | - | 736 W/m² | - |
| 1778006666 | 26.67° C | 37% | 1036.3 hPa | 0 mm | - | 797 W/m² | - |
| 1778006362 | 27.22° C | 37% | 1036.2 hPa | 0 mm | - | 746 W/m² | - |
| 1778006059 | 27.78° C | 36% | 1036.2 hPa | 0 mm | - | 769 W/m² | - |
| 1778005756 | 27.22° C | 38% | 1036.5 hPa | 0 mm | - | 759 W/m² | - |
| 1778005453 | 27.22° C | 37% | 1036.2 hPa | 0 mm | - | 233 W/m² | - |
| 1778005149 | 27.78° C | 38% | 1036.5 hPa | 0 mm | - | 206 W/m² | - |
| 1778004847 | 27.78° C | 36% | 1036.5 hPa | 0 mm | - | 665 W/m² | - |
| 1778004543 | 26.67° C | 38% | 1036.3 hPa | 0 mm | - | 802 W/m² | - |
| 1778004240 | 27.22° C | 37% | 1036.3 hPa | 0 mm | - | 782 W/m² | - |
| 1778003936 | 27.78° C | 37% | 1036.4 hPa | 0 mm | - | 222 W/m² | - |
* Rain latest hour (hover to see other rain measurements)
** Current wind speed in m/s (hover to see current wind gust speed)